EDFH/HHN METAR and TAF weather

Enter ICAO airport designator
Station Type Date Time Source
EDFH METAR 2018/04/27 00:50 UTC NOAA

EDFH 270050Z VRB02KT CAVOK 04/01 Q1017


Station Type Date Time Source
EDFH Decoded METAR 2018/04/27 00:50 UTC NOAA

Hahn, Germany (EDFH) 49-57N 007-16E 498M
Apr 26, 2018 - 08:50 PM EDT / 2018.04.27 0050 UTC
Wind: Variable at 2 MPH (2 KT):0
Visibility: greater than 7 mile(s):0
Temperature: 39 F (4 C)
Dew Point: 33 F (1 C)
Relative Humidity: 80%
Pressure (altimeter): 30.03 in. Hg (1017 hPa)
ob: EDFH 270050Z VRB02KT CAVOK 04/01 Q1017
cycle: 1

Station Type Date Time Source
EDFH TAF 2018/04/26 18:34 UTC NOAA

TAF EDFH 261700Z 2618/2718 27010KT CAVOK
BECMG 2619/2621 21006KT
BECMG 2702/2704 15007KT
BECMG 2716/2718 21006KT


Example: see airport list